sensor_id;sensor_type;location;lat;lon;timestamp;temperature;humidity
37356;DHT22;48747;50.250;18.848;2022-07-22T00:00:58;22.60;73.90
37356;DHT22;48747;50.250;18.848;2022-07-22T00:03:01;22.60;74.00
37356;DHT22;48747;50.250;18.848;2022-07-22T00:05:05;22.50;74.30
37356;DHT22;48747;50.250;18.848;2022-07-22T00:07:08;22.40;74.60
37356;DHT22;48747;50.250;18.848;2022-07-22T00:09:11;22.50;74.50
37356;DHT22;48747;50.250;18.848;2022-07-22T00:11:15;22.40;74.60
37356;DHT22;48747;50.250;18.848;2022-07-22T00:13:18;22.40;74.70
37356;DHT22;48747;50.250;18.848;2022-07-22T00:15:21;22.30;74.70
37356;DHT22;48747;50.250;18.848;2022-07-22T00:17:27;22.30;75.20
37356;DHT22;48747;50.250;18.848;2022-07-22T00:19:30;22.20;75.60
37356;DHT22;48747;50.250;18.848;2022-07-22T00:21:33;22.30;76.10
37356;DHT22;48747;50.250;18.848;2022-07-22T00:23:36;22.20;75.80
37356;DHT22;48747;50.250;18.848;2022-07-22T00:25:39;22.10;76.20
37356;DHT22;48747;50.250;18.848;2022-07-22T00:27:42;22.10;76.70
37356;DHT22;48747;50.250;18.848;2022-07-22T00:29:45;22.00;77.20
37356;DHT22;48747;50.250;18.848;2022-07-22T00:31:48;22.00;77.40
37356;DHT22;48747;50.250;18.848;2022-07-22T00:33:51;22.00;76.90
37356;DHT22;48747;50.250;18.848;2022-07-22T00:35:54;22.00;76.90
37356;DHT22;48747;50.250;18.848;2022-07-22T00:37:57;21.90;77.00
37356;DHT22;48747;50.250;18.848;2022-07-22T00:40:00;21.90;77.40
37356;DHT22;48747;50.250;18.848;2022-07-22T00:42:03;21.90;77.70
37356;DHT22;48747;50.250;18.848;2022-07-22T00:44:08;21.90;77.30
37356;DHT22;48747;50.250;18.848;2022-07-22T00:46:11;22.00;77.80
37356;DHT22;48747;50.250;18.848;2022-07-22T00:48:14;21.90;78.00
37356;DHT22;48747;50.250;18.848;2022-07-22T00:50:17;21.80;78.70
37356;DHT22;48747;50.250;18.848;2022-07-22T00:52:22;21.80;79.40
37356;DHT22;48747;50.250;18.848;2022-07-22T00:54:25;21.90;80.10
37356;DHT22;48747;50.250;18.848;2022-07-22T00:56:28;21.90;80.50
37356;DHT22;48747;50.250;18.848;2022-07-22T00:58:31;21.80;80.80
37356;DHT22;48747;50.250;18.848;2022-07-22T01:00:35;21.80;81.10
37356;DHT22;48747;50.250;18.848;2022-07-22T01:02:39;21.80;81.50
37356;DHT22;48747;50.250;18.848;2022-07-22T01:04:42;21.60;81.60
37356;DHT22;48747;50.250;18.848;2022-07-22T01:06:45;21.50;82.50
37356;DHT22;48747;50.250;18.848;2022-07-22T01:08:48;21.50;83.00
37356;DHT22;48747;50.250;18.848;2022-07-22T01:10:51;21.50;83.10
37356;DHT22;48747;50.250;18.848;2022-07-22T01:12:55;21.30;83.50
37356;DHT22;48747;50.250;18.848;2022-07-22T01:14:58;21.30;84.40
37356;DHT22;48747;50.250;18.848;2022-07-22T01:17:01;21.20;84.50
37356;DHT22;48747;50.250;18.848;2022-07-22T01:19:04;21.20;84.90
37356;DHT22;48747;50.250;18.848;2022-07-22T01:21:08;21.20;85.00
37356;DHT22;48747;50.250;18.848;2022-07-22T01:23:11;21.20;85.50
37356;DHT22;48747;50.250;18.848;2022-07-22T01:25:14;21.20;85.40
37356;DHT22;48747;50.250;18.848;2022-07-22T01:27:17;21.30;85.80
37356;DHT22;48747;50.250;18.848;2022-07-22T01:29:20;21.40;86.50
37356;DHT22;48747;50.250;18.848;2022-07-22T01:31:23;21.50;86.80
37356;DHT22;48747;50.250;18.848;2022-07-22T01:33:27;21.50;86.30
37356;DHT22;48747;50.250;18.848;2022-07-22T01:35:30;21.40;85.90
37356;DHT22;48747;50.250;18.848;2022-07-22T01:37:35;21.30;86.40
37356;DHT22;48747;50.250;18.848;2022-07-22T01:39:39;21.30;87.20
37356;DHT22;48747;50.250;18.848;2022-07-22T01:41:42;21.30;87.50
37356;DHT22;48747;50.250;18.848;2022-07-22T01:43:45;21.20;88.00
37356;DHT22;48747;50.250;18.848;2022-07-22T01:45:51;21.20;88.60
37356;DHT22;48747;50.250;18.848;2022-07-22T01:47:54;21.10;89.00
37356;DHT22;48747;50.250;18.848;2022-07-22T01:49:57;21.10;89.40
37356;DHT22;48747;50.250;18.848;2022-07-22T01:52:03;21.10;90.00
37356;DHT22;48747;50.250;18.848;2022-07-22T01:54:06;21.00;90.10
37356;DHT22;48747;50.250;18.848;2022-07-22T01:56:09;21.00;90.20
37356;DHT22;48747;50.250;18.848;2022-07-22T01:58:12;21.00;90.40
37356;DHT22;48747;50.250;18.848;2022-07-22T02:00:16;20.90;90.60
37356;DHT22;48747;50.250;18.848;2022-07-22T02:02:19;21.00;91.00
37356;DHT22;48747;50.250;18.848;2022-07-22T02:04:22;20.90;90.90
37356;DHT22;48747;50.250;18.848;2022-07-22T02:06:26;20.90;91.00
37356;DHT22;48747;50.250;18.848;2022-07-22T02:08:29;21.00;91.10
37356;DHT22;48747;50.250;18.848;2022-07-22T02:10:33;21.00;91.20
37356;DHT22;48747;50.250;18.848;2022-07-22T02:12:36;21.00;91.10
37356;DHT22;48747;50.250;18.848;2022-07-22T02:14:39;21.00;91.30
37356;DHT22;48747;50.250;18.848;2022-07-22T02:16:42;21.00;91.70
37356;DHT22;48747;50.250;18.848;2022-07-22T02:18:46;21.00;91.70
37356;DHT22;48747;50.250;18.848;2022-07-22T02:20:49;21.00;91.80
37356;DHT22;48747;50.250;18.848;2022-07-22T02:22:52;21.10;92.10
37356;DHT22;48747;50.250;18.848;2022-07-22T02:24:55;21.10;92.20
37356;DHT22;48747;50.250;18.848;2022-07-22T02:26:58;21.20;92.10
37356;DHT22;48747;50.250;18.848;2022-07-22T02:29:02;21.20;92.20
37356;DHT22;48747;50.250;18.848;2022-07-22T02:31:05;21.30;92.10
37356;DHT22;48747;50.250;18.848;2022-07-22T02:33:08;21.30;92.00
37356;DHT22;48747;50.250;18.848;2022-07-22T02:35:11;21.20;92.20
37356;DHT22;48747;50.250;18.848;2022-07-22T02:37:19;21.10;93.00
37356;DHT22;48747;50.250;18.848;2022-07-22T02:39:19;21.00;93.50
37356;DHT22;48747;50.250;18.848;2022-07-22T02:41:22;21.00;94.00
37356;DHT22;48747;50.250;18.848;2022-07-22T02:43:25;20.90;94.60
37356;DHT22;48747;50.250;18.848;2022-07-22T02:45:28;20.80;95.70
37356;DHT22;48747;50.250;18.848;2022-07-22T02:47:31;20.70;96.30
37356;DHT22;48747;50.250;18.848;2022-07-22T02:49:34;20.60;96.70
37356;DHT22;48747;50.250;18.848;2022-07-22T02:51:37;20.60;97.30
37356;DHT22;48747;50.250;18.848;2022-07-22T02:53:40;20.60;98.00
37356;DHT22;48747;50.250;18.848;2022-07-22T02:55:43;20.70;98.50
37356;DHT22;48747;50.250;18.848;2022-07-22T02:57:46;20.80;98.50
37356;DHT22;48747;50.250;18.848;2022-07-22T02:59:49;20.90;98.70
37356;DHT22;48747;50.250;18.848;2022-07-22T03:01:52;21.00;98.00
37356;DHT22;48747;50.250;18.848;2022-07-22T03:03:55;21.10;97.80
37356;DHT22;48747;50.250;18.848;2022-07-22T03:05:59;21.00;97.90
37356;DHT22;48747;50.250;18.848;2022-07-22T03:08:02;20.90;98.60
37356;DHT22;48747;50.250;18.848;2022-07-22T03:10:05;20.90;99.50
37356;DHT22;48747;50.250;18.848;2022-07-22T03:12:08;20.90;99.40
37356;DHT22;48747;50.250;18.848;2022-07-22T03:14:11;20.90;99.90
37356;DHT22;48747;50.250;18.848;2022-07-22T03:16:15;20.80;99.90
37356;DHT22;48747;50.250;18.848;2022-07-22T03:18:18;20.90;99.90
37356;DHT22;48747;50.250;18.848;2022-07-22T03:20:21;21.00;99.90
37356;DHT22;48747;50.250;18.848;2022-07-22T03:22:24;21.00;99.90
37356;DHT22;48747;50.250;18.848;2022-07-22T03:24:27;21.00;99.90
37356;DHT22;48747;50.250;18.848;2022-07-22T03:26:30;21.10;99.90
37356;DHT22;48747;50.250;18.848;2022-07-22T03:28:33;21.10;99.90
37356;DHT22;48747;50.250;18.848;2022-07-22T03:30:36;21.00;99.90
37356;DHT22;48747;50.250;18.848;2022-07-22T03:32:39;21.10;99.90
37356;DHT22;48747;50.250;18.848;2022-07-22T03:34:44;21.10;99.90
37356;DHT22;48747;50.250;18.848;2022-07-22T03:36:47;21.10;99.90
37356;DHT22;48747;50.250;18.848;2022-07-22T03:38:50;21.10;99.90
37356;DHT22;48747;50.250;18.848;2022-07-22T03:40:53;21.10;99.90
37356;DHT22;48747;50.250;18.848;2022-07-22T03:42:57;21.10;99.90
37356;DHT22;48747;50.250;18.848;2022-07-22T03:45:00;21.10;99.90
37356;DHT22;48747;50.250;18.848;2022-07-22T03:47:03;21.10;99.90
37356;DHT22;48747;50.250;18.848;2022-07-22T03:49:06;21.20;99.90
37356;DHT22;48747;50.250;18.848;2022-07-22T03:51:09;21.30;99.90
37356;DHT22;48747;50.250;18.848;2022-07-22T03:53:12;21.40;99.90
37356;DHT22;48747;50.250;18.848;2022-07-22T03:55:15;21.40;99.90
37356;DHT22;48747;50.250;18.848;2022-07-22T03:57:19;21.50;99.90
37356;DHT22;48747;50.250;18.848;2022-07-22T03:59:22;21.70;99.80
37356;DHT22;48747;50.250;18.848;2022-07-22T04:01:25;21.80;99.40
37356;DHT22;48747;50.250;18.848;2022-07-22T04:03:28;21.80;98.40
37356;DHT22;48747;50.250;18.848;2022-07-22T04:05:31;21.90;98.10
37356;DHT22;48747;50.250;18.848;2022-07-22T04:07:35;21.80;97.90
37356;DHT22;48747;50.250;18.848;2022-07-22T04:09:38;21.90;97.40
37356;DHT22;48747;50.250;18.848;2022-07-22T04:11:41;21.90;97.00
37356;DHT22;48747;50.250;18.848;2022-07-22T04:13:44;21.90;96.90
37356;DHT22;48747;50.250;18.848;2022-07-22T04:15:53;21.90;97.20
37356;DHT22;48747;50.250;18.848;2022-07-22T04:17:52;21.90;97.20
37356;DHT22;48747;50.250;18.848;2022-07-22T04:19:55;22.00;97.20
37356;DHT22;48747;50.250;18.848;2022-07-22T04:21:59;22.10;96.10
37356;DHT22;48747;50.250;18.848;2022-07-22T04:24:02;22.20;95.90
37356;DHT22;48747;50.250;18.848;2022-07-22T04:26:05;22.30;95.30
37356;DHT22;48747;50.250;18.848;2022-07-22T04:28:08;22.50;94.60
37356;DHT22;48747;50.250;18.848;2022-07-22T04:30:12;22.60;94.10
37356;DHT22;48747;50.250;18.848;2022-07-22T04:32:15;22.60;94.10
37356;DHT22;48747;50.250;18.848;2022-07-22T04:34:18;22.50;94.60
37356;DHT22;48747;50.250;18.848;2022-07-22T04:36:21;22.40;93.60
37356;DHT22;48747;50.250;18.848;2022-07-22T04:38:24;22.30;94.00
37356;DHT22;48747;50.250;18.848;2022-07-22T04:40:27;22.30;94.10
37356;DHT22;48747;50.250;18.848;2022-07-22T04:42:30;22.20;94.40
37356;DHT22;48747;50.250;18.848;2022-07-22T04:44:33;22.20;94.50
37356;DHT22;48747;50.250;18.848;2022-07-22T04:46:36;22.10;94.90
37356;DHT22;48747;50.250;18.848;2022-07-22T04:48:39;22.10;95.00
37356;DHT22;48747;50.250;18.848;2022-07-22T04:50:43;22.10;94.80
37356;DHT22;48747;50.250;18.848;2022-07-22T04:52:46;22.10;95.30
37356;DHT22;48747;50.250;18.848;2022-07-22T04:54:49;22.10;95.20
37356;DHT22;48747;50.250;18.848;2022-07-22T04:56:52;22.20;95.50
37356;DHT22;48747;50.250;18.848;2022-07-22T04:58:55;22.30;95.10
37356;DHT22;48747;50.250;18.848;2022-07-22T05:00:58;22.50;95.10
37356;DHT22;48747;50.250;18.848;2022-07-22T05:03:01;22.50;93.70
37356;DHT22;48747;50.250;18.848;2022-07-22T05:05:04;22.70;93.50
37356;DHT22;48747;50.250;18.848;2022-07-22T05:07:07;22.90;92.70
37356;DHT22;48747;50.250;18.848;2022-07-22T05:09:11;23.10;92.20
37356;DHT22;48747;50.250;18.848;2022-07-22T05:11:14;23.40;91.50
37356;DHT22;48747;50.250;18.848;2022-07-22T05:13:17;23.50;91.20
37356;DHT22;48747;50.250;18.848;2022-07-22T05:15:20;23.80;91.00
37356;DHT22;48747;50.250;18.848;2022-07-22T05:17:23;24.00;90.20
37356;DHT22;48747;50.250;18.848;2022-07-22T05:19:26;24.30;89.50
37356;DHT22;48747;50.250;18.848;2022-07-22T05:21:31;24.40;88.00
37356;DHT22;48747;50.250;18.848;2022-07-22T05:23:36;24.50;85.50
37356;DHT22;48747;50.250;18.848;2022-07-22T05:25:39;24.70;86.00
37356;DHT22;48747;50.250;18.848;2022-07-22T05:27:52;24.60;84.80
37356;DHT22;48747;50.250;18.848;2022-07-22T05:29:56;24.60;85.20
37356;DHT22;48747;50.250;18.848;2022-07-22T05:32:00;24.50;85.90
37356;DHT22;48747;50.250;18.848;2022-07-22T05:34:03;24.60;86.50
37356;DHT22;48747;50.250;18.848;2022-07-22T05:36:07;24.60;86.20
37356;DHT22;48747;50.250;18.848;2022-07-22T05:38:11;24.50;85.00
37356;DHT22;48747;50.250;18.848;2022-07-22T05:40:14;24.50;85.10
37356;DHT22;48747;50.250;18.848;2022-07-22T05:42:17;24.50;84.80
37356;DHT22;48747;50.250;18.848;2022-07-22T05:44:20;24.40;85.20
37356;DHT22;48747;50.250;18.848;2022-07-22T05:46:23;24.50;85.20
37356;DHT22;48747;50.250;18.848;2022-07-22T05:48:26;24.40;84.90
37356;DHT22;48747;50.250;18.848;2022-07-22T05:50:30;24.50;84.50
37356;DHT22;48747;50.250;18.848;2022-07-22T05:52:37;24.40;84.20
37356;DHT22;48747;50.250;18.848;2022-07-22T05:54:40;24.40;84.70
37356;DHT22;48747;50.250;18.848;2022-07-22T05:56:44;24.40;84.50
37356;DHT22;48747;50.250;18.848;2022-07-22T05:58:47;24.40;84.70
37356;DHT22;48747;50.250;18.848;2022-07-22T06:00:50;24.40;84.10
37356;DHT22;48747;50.250;18.848;2022-07-22T06:02:53;24.50;84.90
37356;DHT22;48747;50.250;18.848;2022-07-22T06:04:56;24.60;85.20
37356;DHT22;48747;50.250;18.848;2022-07-22T06:07:01;24.70;84.00
37356;DHT22;48747;50.250;18.848;2022-07-22T06:09:04;24.70;83.90
37356;DHT22;48747;50.250;18.848;2022-07-22T06:11:07;24.80;84.00
37356;DHT22;48747;50.250;18.848;2022-07-22T06:13:10;24.80;83.90
37356;DHT22;48747;50.250;18.848;2022-07-22T06:15:13;24.80;85.10
37356;DHT22;48747;50.250;18.848;2022-07-22T06:17:16;24.80;85.20
37356;DHT22;48747;50.250;18.848;2022-07-22T06:19:19;24.80;85.70
37356;DHT22;48747;50.250;18.848;2022-07-22T06:21:25;24.70;86.70
37356;DHT22;48747;50.250;18.848;2022-07-22T06:23:28;24.60;88.50
37356;DHT22;48747;50.250;18.848;2022-07-22T06:25:31;24.40;88.40
37356;DHT22;48747;50.250;18.848;2022-07-22T06:27:36;24.40;90.10
37356;DHT22;48747;50.250;18.848;2022-07-22T06:29:41;24.40;90.40
37356;DHT22;48747;50.250;18.848;2022-07-22T06:31:47;24.40;90.70
37356;DHT22;48747;50.250;18.848;2022-07-22T06:33:50;24.40;91.00
37356;DHT22;48747;50.250;18.848;2022-07-22T06:35:53;24.40;90.80
37356;DHT22;48747;50.250;18.848;2022-07-22T06:38:00;24.40;90.80
37356;DHT22;48747;50.250;18.848;2022-07-22T06:40:07;24.40;91.00
37356;DHT22;48747;50.250;18.848;2022-07-22T06:42:10;24.40;90.90
37356;DHT22;48747;50.250;18.848;2022-07-22T06:44:13;24.50;90.60
37356;DHT22;48747;50.250;18.848;2022-07-22T06:46:17;24.50;90.50
37356;DHT22;48747;50.250;18.848;2022-07-22T06:48:20;24.60;90.70
37356;DHT22;48747;50.250;18.848;2022-07-22T06:50:23;24.70;90.40
37356;DHT22;48747;50.250;18.848;2022-07-22T06:52:26;24.80;89.70
37356;DHT22;48747;50.250;18.848;2022-07-22T06:54:29;24.90;87.60
37356;DHT22;48747;50.250;18.848;2022-07-22T06:56:33;25.10;87.00
37356;DHT22;48747;50.250;18.848;2022-07-22T06:58:36;25.20;85.30
37356;DHT22;48747;50.250;18.848;2022-07-22T07:00:39;25.20;85.90
37356;DHT22;48747;50.250;18.848;2022-07-22T07:02:42;25.30;86.80
37356;DHT22;48747;50.250;18.848;2022-07-22T07:04:45;25.30;85.80
37356;DHT22;48747;50.250;18.848;2022-07-22T07:06:48;25.30;86.50
37356;DHT22;48747;50.250;18.848;2022-07-22T07:08:56;25.40;86.10
37356;DHT22;48747;50.250;18.848;2022-07-22T07:10:59;25.60;84.30
37356;DHT22;48747;50.250;18.848;2022-07-22T07:13:03;25.70;84.00
37356;DHT22;48747;50.250;18.848;2022-07-22T07:15:06;25.80;82.20
37356;DHT22;48747;50.250;18.848;2022-07-22T07:17:09;26.00;82.20
37356;DHT22;48747;50.250;18.848;2022-07-22T07:19:12;26.00;80.60
37356;DHT22;48747;50.250;18.848;2022-07-22T07:21:15;26.00;81.40
37356;DHT22;48747;50.250;18.848;2022-07-22T07:23:18;26.00;81.40
37356;DHT22;48747;50.250;18.848;2022-07-22T07:25:21;26.10;82.00
37356;DHT22;48747;50.250;18.848;2022-07-22T07:27:24;26.30;79.80
37356;DHT22;48747;50.250;18.848;2022-07-22T07:29:28;26.40;80.80
37356;DHT22;48747;50.250;18.848;2022-07-22T07:31:31;26.50;79.30
37356;DHT22;48747;50.250;18.848;2022-07-22T07:33:35;26.40;78.40
37356;DHT22;48747;50.250;18.848;2022-07-22T07:35:38;26.50;78.60
37356;DHT22;48747;50.250;18.848;2022-07-22T07:37:41;26.60;79.20
37356;DHT22;48747;50.250;18.848;2022-07-22T07:39:44;26.60;77.40
37356;DHT22;48747;50.250;18.848;2022-07-22T07:41:49;26.60;76.90
37356;DHT22;48747;50.250;18.848;2022-07-22T07:43:53;26.50;77.00
37356;DHT22;48747;50.250;18.848;2022-07-22T07:45:58;26.60;78.40
37356;DHT22;48747;50.250;18.848;2022-07-22T07:48:01;26.50;76.30
37356;DHT22;48747;50.250;18.848;2022-07-22T07:50:06;26.50;77.90
37356;DHT22;48747;50.250;18.848;2022-07-22T07:52:09;26.50;76.70
37356;DHT22;48747;50.250;18.848;2022-07-22T07:54:14;26.50;75.50
37356;DHT22;48747;50.250;18.848;2022-07-22T07:56:17;26.60;75.60
37356;DHT22;48747;50.250;18.848;2022-07-22T07:58:20;26.70;76.70
37356;DHT22;48747;50.250;18.848;2022-07-22T08:00:25;26.80;74.50
37356;DHT22;48747;50.250;18.848;2022-07-22T08:02:33;26.80;73.70
37356;DHT22;48747;50.250;18.848;2022-07-22T08:04:36;26.70;73.90
37356;DHT22;48747;50.250;18.848;2022-07-22T08:06:39;26.70;74.60
37356;DHT22;48747;50.250;18.848;2022-07-22T08:08:42;26.80;74.90
37356;DHT22;48747;50.250;18.848;2022-07-22T08:10:46;26.70;75.50
37356;DHT22;48747;50.250;18.848;2022-07-22T08:12:50;26.80;75.20
37356;DHT22;48747;50.250;18.848;2022-07-22T08:14:53;26.90;74.60
37356;DHT22;48747;50.250;18.848;2022-07-22T08:16:57;27.00;75.20
37356;DHT22;48747;50.250;18.848;2022-07-22T08:19:00;27.00;75.30
37356;DHT22;48747;50.250;18.848;2022-07-22T08:21:03;27.00;72.80
37356;DHT22;48747;50.250;18.848;2022-07-22T08:23:06;27.10;73.60
37356;DHT22;48747;50.250;18.848;2022-07-22T08:25:09;27.10;73.10
37356;DHT22;48747;50.250;18.848;2022-07-22T08:27:12;27.30;73.80
37356;DHT22;48747;50.250;18.848;2022-07-22T08:29:15;27.40;73.20
37356;DHT22;48747;50.250;18.848;2022-07-22T08:31:18;27.50;73.30
37356;DHT22;48747;50.250;18.848;2022-07-22T08:33:21;27.80;73.10
37356;DHT22;48747;50.250;18.848;2022-07-22T08:35:25;28.00;73.50
37356;DHT22;48747;50.250;18.848;2022-07-22T08:37:28;28.20;71.50
37356;DHT22;48747;50.250;18.848;2022-07-22T08:39:31;28.40;70.10
37356;DHT22;48747;50.250;18.848;2022-07-22T08:41:37;28.50;70.90
37356;DHT22;48747;50.250;18.848;2022-07-22T08:43:41;28.60;70.70
37356;DHT22;48747;50.250;18.848;2022-07-22T08:45:46;28.60;69.20
37356;DHT22;48747;50.250;18.848;2022-07-22T08:47:51;28.50;69.10
37356;DHT22;48747;50.250;18.848;2022-07-22T08:49:55;28.30;69.70
37356;DHT22;48747;50.250;18.848;2022-07-22T08:52:01;28.30;70.20
37356;DHT22;48747;50.250;18.848;2022-07-22T08:54:03;28.30;69.40
37356;DHT22;48747;50.250;18.848;2022-07-22T08:56:07;28.40;70.10
37356;DHT22;48747;50.250;18.848;2022-07-22T08:58:11;28.60;69.10
37356;DHT22;48747;50.250;18.848;2022-07-22T09:00:16;28.70;70.90
37356;DHT22;48747;50.250;18.848;2022-07-22T09:02:20;28.90;70.20
37356;DHT22;48747;50.250;18.848;2022-07-22T09:04:24;28.90;69.40
37356;DHT22;48747;50.250;18.848;2022-07-22T09:06:28;28.90;68.70
37356;DHT22;48747;50.250;18.848;2022-07-22T09:08:49;29.00;68.70
37356;DHT22;48747;50.250;18.848;2022-07-22T09:10:39;29.00;69.00
37356;DHT22;48747;50.250;18.848;2022-07-22T09:12:59;29.00;67.40
37356;DHT22;48747;50.250;18.848;2022-07-22T09:19:30;29.60;66.10
37356;DHT22;48747;50.250;18.848;2022-07-22T09:21:39;29.60;66.30
37356;DHT22;48747;50.250;18.848;2022-07-22T09:23:44;29.90;66.50
37356;DHT22;48747;50.250;18.848;2022-07-22T09:25:47;30.10;66.30
37356;DHT22;48747;50.250;18.848;2022-07-22T09:30:19;30.00;65.90
37356;DHT22;48747;50.250;18.848;2022-07-22T09:32:22;30.00;65.80
37356;DHT22;48747;50.250;18.848;2022-07-22T09:34:30;29.90;65.50
37356;DHT22;48747;50.250;18.848;2022-07-22T09:36:52;29.90;66.70
37356;DHT22;48747;50.250;18.848;2022-07-22T09:38:40;29.80;66.00
37356;DHT22;48747;50.250;18.848;2022-07-22T09:40:45;29.80;66.00
37356;DHT22;48747;50.250;18.848;2022-07-22T09:42:56;29.90;65.40
37356;DHT22;48747;50.250;18.848;2022-07-22T09:45:02;30.00;65.90
37356;DHT22;48747;50.250;18.848;2022-07-22T09:47:05;30.10;65.10
37356;DHT22;48747;50.250;18.848;2022-07-22T09:49:08;30.20;64.40
37356;DHT22;48747;50.250;18.848;2022-07-22T09:51:12;30.30;64.60
37356;DHT22;48747;50.250;18.848;2022-07-22T09:53:19;30.50;64.50
37356;DHT22;48747;50.250;18.848;2022-07-22T09:55:24;30.50;63.90
37356;DHT22;48747;50.250;18.848;2022-07-22T09:57:27;30.50;63.90
37356;DHT22;48747;50.250;18.848;2022-07-22T09:59:30;30.50;63.30
37356;DHT22;48747;50.250;18.848;2022-07-22T10:01:34;30.40;64.40
37356;DHT22;48747;50.250;18.848;2022-07-22T10:03:40;30.20;63.70
37356;DHT22;48747;50.250;18.848;2022-07-22T10:05:45;30.10;64.50
37356;DHT22;48747;50.250;18.848;2022-07-22T10:07:51;30.20;64.10
37356;DHT22;48747;50.250;18.848;2022-07-22T10:09:55;30.20;62.90
37356;DHT22;48747;50.250;18.848;2022-07-22T10:11:58;30.20;64.90
37356;DHT22;48747;50.250;18.848;2022-07-22T10:14:02;30.30;65.20
37356;DHT22;48747;50.250;18.848;2022-07-22T10:16:11;30.40;64.60
37356;DHT22;48747;50.250;18.848;2022-07-22T10:18:20;30.50;64.20
37356;DHT22;48747;50.250;18.848;2022-07-22T10:20:26;30.50;63.50
37356;DHT22;48747;50.250;18.848;2022-07-22T10:25:01;30.20;64.20
37356;DHT22;48747;50.250;18.848;2022-07-22T10:27:04;30.20;63.80
37356;DHT22;48747;50.250;18.848;2022-07-22T10:29:27;30.40;63.40
37356;DHT22;48747;50.250;18.848;2022-07-22T10:31:30;30.50;64.00
37356;DHT22;48747;50.250;18.848;2022-07-22T10:33:33;30.50;64.80
37356;DHT22;48747;50.250;18.848;2022-07-22T10:37:48;30.90;63.30
37356;DHT22;48747;50.250;18.848;2022-07-22T10:40:10;30.90;63.70
37356;DHT22;48747;50.250;18.848;2022-07-22T10:42:14;30.80;62.60
37356;DHT22;48747;50.250;18.848;2022-07-22T10:46:52;30.90;62.50
37356;DHT22;48747;50.250;18.848;2022-07-22T10:48:57;31.20;64.30
37356;DHT22;48747;50.250;18.848;2022-07-22T10:51:08;31.20;63.80
37356;DHT22;48747;50.250;18.848;2022-07-22T10:55:22;31.00;63.20
37356;DHT22;48747;50.250;18.848;2022-07-22T10:57:30;30.80;63.40
37356;DHT22;48747;50.250;18.848;2022-07-22T10:59:33;30.50;63.70
37356;DHT22;48747;50.250;18.848;2022-07-22T11:01:39;30.30;63.30
37356;DHT22;48747;50.250;18.848;2022-07-22T11:03:45;30.30;64.00
37356;DHT22;48747;50.250;18.848;2022-07-22T11:05:49;30.30;64.20
37356;DHT22;48747;50.250;18.848;2022-07-22T11:07:52;30.20;63.30
37356;DHT22;48747;50.250;18.848;2022-07-22T11:10:09;30.20;63.20
37356;DHT22;48747;50.250;18.848;2022-07-22T11:12:13;30.40;64.30
37356;DHT22;48747;50.250;18.848;2022-07-22T11:14:27;30.50;62.10
37356;DHT22;48747;50.250;18.848;2022-07-22T11:16:32;30.40;61.60
37356;DHT22;48747;50.250;18.848;2022-07-22T11:18:54;30.50;63.60
37356;DHT22;48747;50.250;18.848;2022-07-22T11:20:57;30.60;63.10
37356;DHT22;48747;50.250;18.848;2022-07-22T11:23:02;30.90;63.40
37356;DHT22;48747;50.250;18.848;2022-07-22T11:25:07;31.10;61.50
37356;DHT22;48747;50.250;18.848;2022-07-22T11:27:15;31.20;61.60
37356;DHT22;48747;50.250;18.848;2022-07-22T11:29:38;31.40;61.90
37356;DHT22;48747;50.250;18.848;2022-07-22T11:31:38;31.60;62.40
37356;DHT22;48747;50.250;18.848;2022-07-22T11:33:42;31.80;60.90
37356;DHT22;48747;50.250;18.848;2022-07-22T11:36:05;31.90;60.60
37356;DHT22;48747;50.250;18.848;2022-07-22T11:38:09;31.90;59.50
37356;DHT22;48747;50.250;18.848;2022-07-22T11:40:12;31.90;60.50
37356;DHT22;48747;50.250;18.848;2022-07-22T11:42:15;31.80;58.90
37356;DHT22;48747;50.250;18.848;2022-07-22T11:44:21;31.70;59.40
37356;DHT22;48747;50.250;18.848;2022-07-22T11:46:35;31.70;60.70
37356;DHT22;48747;50.250;18.848;2022-07-22T11:48:38;31.90;60.00
37356;DHT22;48747;50.250;18.848;2022-07-22T11:50:41;31.90;59.70
37356;DHT22;48747;50.250;18.848;2022-07-22T11:52:53;31.90;59.20
37356;DHT22;48747;50.250;18.848;2022-07-22T11:57:26;32.00;59.50
37356;DHT22;48747;50.250;18.848;2022-07-22T11:59:34;32.20;59.40
37356;DHT22;48747;50.250;18.848;2022-07-22T12:01:39;32.10;59.70
37356;DHT22;48747;50.250;18.848;2022-07-22T12:03:58;32.10;59.40
37356;DHT22;48747;50.250;18.848;2022-07-22T12:06:06;32.20;59.60
37356;DHT22;48747;50.250;18.848;2022-07-22T12:08:17;32.30;59.10
37356;DHT22;48747;50.250;18.848;2022-07-22T12:10:17;32.40;58.10
37356;DHT22;48747;50.250;18.848;2022-07-22T12:12:41;32.50;57.90
37356;DHT22;48747;50.250;18.848;2022-07-22T12:14:50;32.50;57.00
37356;DHT22;48747;50.250;18.848;2022-07-22T12:17:08;32.50;58.50
37356;DHT22;48747;50.250;18.848;2022-07-22T12:19:25;32.60;58.60
37356;DHT22;48747;50.250;18.848;2022-07-22T12:21:27;32.60;57.80
37356;DHT22;48747;50.250;18.848;2022-07-22T12:23:39;32.60;58.20
37356;DHT22;48747;50.250;18.848;2022-07-22T12:26:05;32.40;58.20
37356;DHT22;48747;50.250;18.848;2022-07-22T12:28:14;32.60;57.50
37356;DHT22;48747;50.250;18.848;2022-07-22T12:30:24;32.80;56.80
37356;DHT22;48747;50.250;18.848;2022-07-22T12:32:45;32.90;58.40
37356;DHT22;48747;50.250;18.848;2022-07-22T12:34:47;33.00;56.50
37356;DHT22;48747;50.250;18.848;2022-07-22T12:36:56;33.00;57.60
37356;DHT22;48747;50.250;18.848;2022-07-22T12:39:15;32.80;57.20
37356;DHT22;48747;50.250;18.848;2022-07-22T12:41:29;32.90;57.20
37356;DHT22;48747;50.250;18.848;2022-07-22T12:43:28;33.00;57.70
37356;DHT22;48747;50.250;18.848;2022-07-22T12:45:35;33.20;56.90
37356;DHT22;48747;50.250;18.848;2022-07-22T12:48:00;33.30;56.60
37356;DHT22;48747;50.250;18.848;2022-07-22T12:49:57;33.50;57.00
37356;DHT22;48747;50.250;18.848;2022-07-22T12:52:11;33.50;56.20
37356;DHT22;48747;50.250;18.848;2022-07-22T12:54:15;33.40;57.10
37356;DHT22;48747;50.250;18.848;2022-07-22T12:56:20;33.40;57.20
37356;DHT22;48747;50.250;18.848;2022-07-22T12:58:28;33.60;56.50
37356;DHT22;48747;50.250;18.848;2022-07-22T13:00:35;33.70;55.80
37356;DHT22;48747;50.250;18.848;2022-07-22T13:02:38;33.80;55.80
37356;DHT22;48747;50.250;18.848;2022-07-22T13:04:42;33.60;54.70
37356;DHT22;48747;50.250;18.848;2022-07-22T13:06:45;33.40;55.40
37356;DHT22;48747;50.250;18.848;2022-07-22T13:08:48;33.30;56.70
37356;DHT22;48747;50.250;18.848;2022-07-22T13:10:53;33.10;56.80
37356;DHT22;48747;50.250;18.848;2022-07-22T13:12:56;33.10;56.30